Carnival Glory — 3FPS9 — position and weather

sailwx.info

Track history (hours):
 
Tides and Currents Weather Stations Pressure Air Temp Water Temp Dewpoint Dewpoint Depression Visibility Wind Speed Wind Dir Waves Ship Positions

Carnival Glory

Operator: Carnival Cruise Lines

Last reported at 2019-Feb-22 23:36 UTC. Time now 2019-Feb-23 17:59 UTC.
Position N 14°48' W 061°34'.

Type: Passenger vessel. MMSI: 357659000.

Date/timePositionNaut miles runAvg speedWind from/ knotsBaromVisibWave heightAir tempDewpointWater temp
2019-Feb-22 23:36N 14°48' W 061°34'317.0
2019-Feb-22 23:26N 14°46' W 061°33'717.1
2019-Feb-22 23:00N 14°39' W 061°30'715.0
2019-Feb-22 22:30N 14°35' W 061°24'815.4
2019-Feb-22 22:00N 14°35' W 061°16'816.5
2019-Feb-22 21:30N 14°35' W 061°07'3 6.3
2019-Feb-22 21:00N 14°36' W 061°04'0 0.0
2019-Feb-22 20:30N 14°36' W 061°04'0 0.0
2019-Feb-22 19:57N 14°36' W 061°04'0 0.0
2019-Feb-22 19:30N 14°36' W 061°04'0 0.0
2019-Feb-22 19:00N 14°36' W 061°04'0 0.0
2019-Feb-22 18:30N 14°36' W 061°04'0 0.0
2019-Feb-22 18:00N 14°36' W 061°04'0 0.0
2019-Feb-22 17:30N 14°36' W 061°04'0 0.0
2019-Feb-22 16:57N 14°36' W 061°04'0 0.0
2019-Feb-22 16:30N 14°36' W 061°04'0 0.0
2019-Feb-22 16:00N 14°36' W 061°04'0 0.0
2019-Feb-22 15:24N 14°36' W 061°04'0 0.0
2019-Feb-22 14:57N 14°36' W 061°04'0 0.0
2019-Feb-22 14:30N 14°36' W 061°04'0 0.0
2019-Feb-22 14:00N 14°36' W 061°04'0 0.0
2019-Feb-22 13:30N 14°36' W 061°04'0 0.0
2019-Feb-22 13:00N 14°36' W 061°04'0 0.0
2019-Feb-22 12:15N 14°36' W 061°04'0 0.0
2019-Feb-22 11:43N 14°36' W 061°04'0 0.3
2019-Feb-22 11:30N 14°36' W 061°04'3 5.9
2019-Feb-22 10:59N 14°35' W 061°07'5 9.7
2019-Feb-22 10:30N 14°33' W 061°12'4 8.0
2019-Feb-22 09:59N 14°29' W 061°12'4 7.6
2019-Feb-22 09:30N 14°26' W 061°10'4 7.8
2019-Feb-22 09:00N 14°24' W 061°07'4 8.5
2019-Feb-22 08:30N 14°21' W 061°03'5 9.1
2019-Feb-22 08:00N 14°18' W 061°00'5 9.3
2019-Feb-22 07:30N 14°15' W 060°57'510.7
2019-Feb-22 07:00N 14°11' W 060°52'510.3
2019-Feb-22 06:30N 14°07' W 060°49'5 9.8
2019-Feb-22 06:00N 14°04' W 060°45'10744.6
2019-Feb-22 06:00N 14°00' W 060°36'3 4.2 060 / 151016.510.8 25.022.027.0
2019-Feb-22 05:14N 13°59' W 060°39'38 1.5
2019-Feb-21 04:45N 14°34' W 060°25'618.6
2019-Feb-21 04:27N 14°39' W 060°28'918.6
2019-Feb-21 03:59N 14°47' W 060°32'1218.8
2019-Feb-21 03:22N 14°58' W 060°37'818.8
2019-Feb-21 02:56N 15°05' W 060°40'193 8.1
2019-Feb-20 02:57N 16°49' W 063°30'  
2019-Feb-17 03:28N 26°13' W 079°13'818.3
2019-Feb-17 03:00N 26°13' W 079°23'1019.1
2019-Feb-17 02:30N 26°07' W 079°31'817.0
2019-Feb-17 02:00N 26°02' W 079°39'815.1
2019-Feb-17 01:30N 25°58' W 079°46'815.6
2019-Feb-17 01:00N 25°52' W 079°52'713.7
2019-Feb-17 00:31N 25°49' W 079°59'611.4
2019-Feb-17 00:01N 25°47' W 080°04'5 9.3
2019-Feb-16 23:30N 25°46' W 080°09'1 1.8
2019-Feb-16 22:59N 25°47' W 080°10'0 0.0
2019-Feb-16 22:29N 25°47' W 080°10'0 0.0
2019-Feb-16 21:59N 25°47' W 080°10'0 0.0
2019-Feb-16 21:29N 25°47' W 080°10'0 0.0
2019-Feb-16 20:56N 25°47' W 080°10'0 0.0
2019-Feb-16 20:26N 25°47' W 080°10'0 0.0
2019-Feb-16 19:56N 25°47' W 080°10'0 0.0
2019-Feb-16 19:29N 25°47' W 080°10'0 0.0
2019-Feb-16 18:56N 25°47' W 080°10'0 0.0
2019-Feb-16 18:26N 25°47' W 080°10'0 0.0
2019-Feb-16 17:59N 25°47' W 080°10'0 0.0
2019-Feb-16 17:23N 25°47' W 080°10'0 0.0
2019-Feb-16 16:56N 25°47' W 080°10'0 0.0
2019-Feb-16 16:29N 25°47' W 080°10'0 0.0
2019-Feb-16 15:59N 25°47' W 080°10'0 0.0
2019-Feb-16 15:26N 25°47' W 080°10'0 0.0
2019-Feb-16 14:56N 25°47' W 080°10'0 0.0
2019-Feb-16 14:26N 25°47' W 080°10'0 0.0
2019-Feb-16 13:59N 25°47' W 080°10'0 0.0
2019-Feb-16 13:29N 25°47' W 080°10'0 0.0
2019-Feb-16 12:59N 25°47' W 080°10'0 0.0
2019-Feb-16 12:29N 25°47' W 080°10'0 0.0
2019-Feb-16 11:59N 25°47' W 080°10'0 0.0
2019-Feb-16 11:29N 25°47' W 080°10'0 0.0
2019-Feb-16 10:59N 25°47' W 080°10'0 0.0
2019-Feb-16 10:29N 25°47' W 080°10'1 1.3
2019-Feb-16 10:00N 25°47' W 080°10'5 9.5
2019-Feb-16 09:30N 25°46' W 080°04'4 7.1
2019-Feb-16 09:00N 25°47' W 080°01'5 9.9
2019-Feb-16 08:30N 25°45' W 079°56'5 9.8
2019-Feb-16 08:00N 25°42' W 079°51'4 8.8
2019-Feb-16 07:30N 25°39' W 079°48'510.4
2019-Feb-16 07:00N 25°35' W 079°44'612.0
2019-Feb-16 06:30N 25°30' W 079°41'814.4
2019-Feb-16 05:58N 25°22' W 079°40'48316.1
2019-Feb-15 00:00N 20°45' W 086°49'917.5
2019-Feb-14 23:30N 20°38' W 086°54'713.5
2019-Feb-14 23:00N 20°32' W 086°58'4 7.2
2019-Feb-14 22:29N 20°29' W 086°59'0 0.0
2019-Feb-14 21:59N 20°29' W 086°59'0 0.0
2019-Feb-14 21:29N 20°29' W 086°59'0 0.0
2019-Feb-14 20:59N 20°29' W 086°59'0 0.0
2019-Feb-14 20:29N 20°29' W 086°59'0 0.0
2019-Feb-14 19:59N 20°29' W 086°59'0 0.0
2019-Feb-14 19:29N 20°29' W 086°59'0 0.0
2019-Feb-14 18:56N 20°29' W 086°59'0 0.0
2019-Feb-14 18:29N 20°29' W 086°59'0 0.0
2019-Feb-14 17:59N 20°29' W 086°59'0 0.0
2019-Feb-14 17:26N 20°29' W 086°59'0 0.0
2019-Feb-14 16:59N 20°29' W 086°59'0 0.0
2019-Feb-14 16:26N 20°29' W 086°59'0 0.0
2019-Feb-14 15:59N 20°29' W 086°59'0 0.0
2019-Feb-14 15:29N 20°29' W 086°59'0 0.0
2019-Feb-14 14:59N 20°29' W 086°59'0 0.0
2019-Feb-14 14:29N 20°29' W 086°59'0 0.0
2019-Feb-14 13:59N 20°29' W 086°59'0 0.0
2019-Feb-14 13:29N 20°29' W 086°59'0 0.0
2019-Feb-14 12:59N 20°29' W 086°59'0 0.9
2019-Feb-14 12:30N 20°29' W 086°59'4 7.4
2019-Feb-14 12:00N 20°28' W 087°03'612.4
2019-Feb-14 11:30N 20°22' W 087°05'10619.2
2019-Feb-14 06:00N 18°36' W 087°00'   360 / 251019.410.8 26.023.127.0
Track history (hours):
 
Tides and Currents Weather Stations Pressure Air Temp Water Temp Dewpoint Dewpoint Depression Visibility Wind Speed Wind Dir Waves Ship Positions

Carnival Glory

Operator: Carnival Cruise Lines

Last reported at 2019-Feb-22 23:36 UTC. Time now 2019-Feb-23 17:59 UTC.
Position N 14°48' W 061°34'.

Type: Passenger vessel. MMSI: 357659000.

Date/timePositionNaut miles runAvg speedWind from/ knotsBaromVisibWave heightAir tempDewpointWater temp
2019-Feb-22 23:36N 14°48' W 061°34'317.0
2019-Feb-22 23:26N 14°46' W 061°33'717.1
2019-Feb-22 23:00N 14°39' W 061°30'715.0
2019-Feb-22 22:30N 14°35' W 061°24'815.4
2019-Feb-22 22:00N 14°35' W 061°16'816.5
2019-Feb-22 21:30N 14°35' W 061°07'3 6.3
2019-Feb-22 21:00N 14°36' W 061°04'0 0.0
2019-Feb-22 20:30N 14°36' W 061°04'0 0.0
2019-Feb-22 19:57N 14°36' W 061°04'0 0.0
2019-Feb-22 19:30N 14°36' W 061°04'0 0.0
2019-Feb-22 19:00N 14°36' W 061°04'0 0.0
2019-Feb-22 18:30N 14°36' W 061°04'0 0.0
2019-Feb-22 18:00N 14°36' W 061°04'0 0.0
2019-Feb-22 17:30N 14°36' W 061°04'0 0.0
2019-Feb-22 16:57N 14°36' W 061°04'0 0.0
2019-Feb-22 16:30N 14°36' W 061°04'0 0.0
2019-Feb-22 16:00N 14°36' W 061°04'0 0.0
2019-Feb-22 15:24N 14°36' W 061°04'0 0.0
2019-Feb-22 14:57N 14°36' W 061°04'0 0.0
2019-Feb-22 14:30N 14°36' W 061°04'0 0.0
2019-Feb-22 14:00N 14°36' W 061°04'0 0.0
2019-Feb-22 13:30N 14°36' W 061°04'0 0.0
2019-Feb-22 13:00N 14°36' W 061°04'0 0.0
2019-Feb-22 12:15N 14°36' W 061°04'0 0.0
2019-Feb-22 11:43N 14°36' W 061°04'0 0.3
2019-Feb-22 11:30N 14°36' W 061°04'3 5.9
2019-Feb-22 10:59N 14°35' W 061°07'5 9.7
2019-Feb-22 10:30N 14°33' W 061°12'4 8.0
2019-Feb-22 09:59N 14°29' W 061°12'4 7.6
2019-Feb-22 09:30N 14°26' W 061°10'4 7.8
2019-Feb-22 09:00N 14°24' W 061°07'4 8.5
2019-Feb-22 08:30N 14°21' W 061°03'5 9.1
2019-Feb-22 08:00N 14°18' W 061°00'5 9.3
2019-Feb-22 07:30N 14°15' W 060°57'510.7
2019-Feb-22 07:00N 14°11' W 060°52'510.3
2019-Feb-22 06:30N 14°07' W 060°49'5 9.8
2019-Feb-22 06:00N 14°04' W 060°45'10744.6
2019-Feb-22 06:00N 14°00' W 060°36'3 4.2 060 / 151016.510.8 25.022.027.0
2019-Feb-22 05:14N 13°59' W 060°39'38 1.5
2019-Feb-21 04:45N 14°34' W 060°25'618.6
2019-Feb-21 04:27N 14°39' W 060°28'918.6
2019-Feb-21 03:59N 14°47' W 060°32'1218.8
2019-Feb-21 03:22N 14°58' W 060°37'818.8
2019-Feb-21 02:56N 15°05' W 060°40'193 8.1
2019-Feb-20 02:57N 16°49' W 063°30'  
2019-Feb-17 03:28N 26°13' W 079°13'818.3
2019-Feb-17 03:00N 26°13' W 079°23'1019.1
2019-Feb-17 02:30N 26°07' W 079°31'817.0
2019-Feb-17 02:00N 26°02' W 079°39'815.1
2019-Feb-17 01:30N 25°58' W 079°46'815.6
2019-Feb-17 01:00N 25°52' W 079°52'713.7
2019-Feb-17 00:31N 25°49' W 079°59'611.4
2019-Feb-17 00:01N 25°47' W 080°04'5 9.3
2019-Feb-16 23:30N 25°46' W 080°09'1 1.8
2019-Feb-16 22:59N 25°47' W 080°10'0 0.0
2019-Feb-16 22:29N 25°47' W 080°10'0 0.0
2019-Feb-16 21:59N 25°47' W 080°10'0 0.0
2019-Feb-16 21:29N 25°47' W 080°10'0 0.0
2019-Feb-16 20:56N 25°47' W 080°10'0 0.0
2019-Feb-16 20:26N 25°47' W 080°10'0 0.0
2019-Feb-16 19:56N 25°47' W 080°10'0 0.0
2019-Feb-16 19:29N 25°47' W 080°10'0 0.0
2019-Feb-16 18:56N 25°47' W 080°10'0 0.0
2019-Feb-16 18:26N 25°47' W 080°10'0 0.0
2019-Feb-16 17:59N 25°47' W 080°10'0 0.0
2019-Feb-16 17:23N 25°47' W 080°10'0 0.0
2019-Feb-16 16:56N 25°47' W 080°10'0 0.0
2019-Feb-16 16:29N 25°47' W 080°10'0 0.0
2019-Feb-16 15:59N 25°47' W 080°10'0 0.0
2019-Feb-16 15:26N 25°47' W 080°10'0 0.0
2019-Feb-16 14:56N 25°47' W 080°10'0 0.0
2019-Feb-16 14:26N 25°47' W 080°10'0 0.0
2019-Feb-16 13:59N 25°47' W 080°10'0 0.0
2019-Feb-16 13:29N 25°47' W 080°10'0 0.0
2019-Feb-16 12:59N 25°47' W 080°10'0 0.0
2019-Feb-16 12:29N 25°47' W 080°10'0 0.0
2019-Feb-16 11:59N 25°47' W 080°10'0 0.0
2019-Feb-16 11:29N 25°47' W 080°10'0 0.0
2019-Feb-16 10:59N 25°47' W 080°10'0 0.0
2019-Feb-16 10:29N 25°47' W 080°10'1 1.3
2019-Feb-16 10:00N 25°47' W 080°10'5 9.5
2019-Feb-16 09:30N 25°46' W 080°04'4 7.1
2019-Feb-16 09:00N 25°47' W 080°01'5 9.9
2019-Feb-16 08:30N 25°45' W 079°56'5 9.8
2019-Feb-16 08:00N 25°42' W 079°51'4 8.8
2019-Feb-16 07:30N 25°39' W 079°48'510.4
2019-Feb-16 07:00N 25°35' W 079°44'612.0
2019-Feb-16 06:30N 25°30' W 079°41'814.4
2019-Feb-16 05:58N 25°22' W 079°40'48316.1
2019-Feb-15 00:00N 20°45' W 086°49'917.5
2019-Feb-14 23:30N 20°38' W 086°54'713.5
2019-Feb-14 23:00N 20°32' W 086°58'4 7.2
2019-Feb-14 22:29N 20°29' W 086°59'0 0.0
2019-Feb-14 21:59N 20°29' W 086°59'0 0.0
2019-Feb-14 21:29N 20°29' W 086°59'0 0.0
2019-Feb-14 20:59N 20°29' W 086°59'0 0.0
2019-Feb-14 20:29N 20°29' W 086°59'0 0.0
2019-Feb-14 19:59N 20°29' W 086°59'0 0.0
2019-Feb-14 19:29N 20°29' W 086°59'0 0.0
2019-Feb-14 18:56N 20°29' W 086°59'0 0.0
2019-Feb-14 18:29N 20°29' W 086°59'0 0.0
2019-Feb-14 17:59N 20°29' W 086°59'0 0.0
2019-Feb-14 17:26N 20°29' W 086°59'0 0.0
2019-Feb-14 16:59N 20°29' W 086°59'0 0.0
2019-Feb-14 16:26N 20°29' W 086°59'0 0.0
2019-Feb-14 15:59N 20°29' W 086°59'0 0.0
2019-Feb-14 15:29N 20°29' W 086°59'0 0.0
2019-Feb-14 14:59N 20°29' W 086°59'0 0.0
2019-Feb-14 14:29N 20°29' W 086°59'0 0.0
2019-Feb-14 13:59N 20°29' W 086°59'0 0.0
2019-Feb-14 13:29N 20°29' W 086°59'0 0.0
2019-Feb-14 12:59N 20°29' W 086°59'0 0.9
2019-Feb-14 12:30N 20°29' W 086°59'4 7.4
2019-Feb-14 12:00N 20°28' W 087°03'612.4
2019-Feb-14 11:30N 20°22' W 087°05'10619.2
2019-Feb-14 06:00N 18°36' W 087°00'   360 / 251019.410.8 26.023.127.0

Dump ship's entire track history